createdAt,value
2022-09-02T00:01:00.623Z,0.40
2022-09-02T00:03:48.113Z,0.40
2022-09-02T00:06:34.515Z,0.57
2022-09-02T00:09:23.780Z,0.40
2022-09-02T00:12:11.127Z,0.65
2022-09-02T00:14:57.373Z,0.70
2022-09-02T00:17:43.681Z,0.80
2022-09-02T00:20:31.008Z,0.52
2022-09-02T00:23:17.365Z,0.60
2022-09-02T00:26:04.254Z,0.50
2022-09-02T00:28:53.328Z,0.68
2022-09-02T00:31:45.549Z,0.50
2022-09-02T00:34:32.105Z,0.60
2022-09-02T00:37:18.454Z,0.50
2022-09-02T00:40:06.284Z,0.60
2022-09-02T00:42:52.942Z,0.50
2022-09-02T00:45:39.546Z,0.80
2022-09-02T00:48:27.350Z,0.50
2022-09-02T00:51:14.531Z,0.40
2022-09-02T00:54:01.844Z,0.57
2022-09-02T00:56:48.071Z,0.45
2022-09-02T00:59:47.159Z,0.68
2022-09-02T01:02:34.567Z,0.50
2022-09-02T01:05:23.446Z,0.62
2022-09-02T01:08:09.898Z,0.60
2022-09-02T01:10:56.881Z,0.40
2022-09-02T01:13:43.726Z,0.60
2022-09-02T01:16:38.500Z,0.40
2022-09-02T01:19:39.008Z,0.68
2022-09-02T01:22:30.664Z,0.40
2022-09-02T01:25:23.306Z,0.43
2022-09-02T01:28:12.743Z,0.43
2022-09-02T01:30:58.823Z,0.50
2022-09-02T01:33:45.437Z,0.40
2022-09-02T01:36:31.557Z,0.50
2022-09-02T01:39:19.815Z,0.50
2022-09-02T01:42:06.413Z,0.30
2022-09-02T01:44:53.137Z,0.60
2022-09-02T01:47:39.718Z,0.50
2022-09-02T01:50:26.296Z,0.40
2022-09-02T01:53:12.692Z,0.57
2022-09-02T01:55:59.077Z,0.40
2022-09-02T01:58:47.379Z,0.50
2022-09-02T02:01:35.499Z,0.40
2022-09-02T02:04:24.802Z,0.55
2022-09-02T02:07:14.433Z,0.60
2022-09-02T02:10:00.746Z,0.50
2022-09-02T02:12:47.371Z,0.45
2022-09-02T02:18:18.729Z,0.30
2022-09-02T02:21:05.410Z,0.50
2022-09-02T02:23:51.986Z,0.47
2022-09-02T02:26:38.238Z,0.40
2022-09-02T02:29:24.678Z,0.70
2022-09-02T02:32:11.627Z,0.70
2022-09-02T02:34:59.229Z,0.40
2022-09-02T02:37:49.224Z,0.60
2022-09-02T02:40:36.206Z,0.52
2022-09-02T02:43:25.094Z,0.45
2022-09-02T02:46:12.117Z,0.32
2022-09-02T02:49:01.957Z,0.52
2022-09-02T02:51:48.694Z,0.43
2022-09-02T02:54:35.382Z,0.40
2022-09-02T02:57:22.352Z,0.52
2022-09-02T03:00:20.952Z,0.43
2022-09-02T03:03:10.271Z,0.40
2022-09-02T03:05:56.605Z,0.65
2022-09-02T03:08:44.015Z,0.40
2022-09-02T03:11:30.798Z,0.60
2022-09-02T03:14:19.237Z,0.60
2022-09-02T03:17:06.928Z,0.60
2022-09-02T03:19:54.238Z,0.50
2022-09-02T03:22:40.930Z,0.60
2022-09-02T03:25:35.418Z,0.50
2022-09-02T03:28:22.662Z,0.32
2022-09-02T03:31:15.500Z,0.50
2022-09-02T03:34:02.143Z,0.40
2022-09-02T03:36:48.522Z,0.40
2022-09-02T03:39:36.758Z,0.50
2022-09-02T03:42:23.431Z,0.47
2022-09-02T03:45:11.134Z,0.40
2022-09-02T03:47:58.714Z,0.50
2022-09-02T03:50:47.442Z,0.40
2022-09-02T03:53:35.077Z,0.60
2022-09-02T03:56:22.581Z,0.73
2022-09-02T03:59:09.201Z,0.60
2022-09-02T04:01:55.719Z,0.50
2022-09-02T04:04:42.694Z,0.60
2022-09-02T04:07:28.969Z,0.80
2022-09-02T04:10:15.881Z,0.55
2022-09-02T04:13:02.176Z,0.70
2022-09-02T04:15:49.717Z,0.55
2022-09-02T04:18:36.510Z,0.52
2022-09-02T04:21:25.369Z,0.52
2022-09-02T04:24:11.922Z,0.60
2022-09-02T04:27:03.910Z,0.45
2022-09-02T04:29:51.575Z,0.40
2022-09-02T04:32:40.844Z,0.60
2022-09-02T04:35:27.944Z,0.52
2022-09-02T04:38:14.247Z,0.30
2022-09-02T04:41:01.347Z,1.27
2022-09-02T04:43:48.008Z,0.50
2022-09-02T04:46:34.979Z,0.57
2022-09-02T04:49:22.044Z,0.80
2022-09-02T04:52:10.577Z,0.43
2022-09-02T04:54:57.576Z,0.62
2022-09-02T04:57:43.809Z,0.50
2022-09-02T05:00:30.229Z,0.70
2022-09-02T05:03:17.110Z,0.60
2022-09-02T05:06:07.731Z,0.50
2022-09-02T05:08:59.628Z,0.60
2022-09-02T05:11:48.109Z,0.60
2022-09-02T05:14:34.585Z,0.50
2022-09-02T05:17:21.855Z,0.70
2022-09-02T05:20:09.612Z,0.60
2022-09-02T05:22:56.485Z,0.75
2022-09-02T05:25:43.013Z,0.55
2022-09-02T05:28:29.578Z,0.50
2022-09-02T05:31:17.857Z,0.50
2022-09-02T05:34:04.756Z,0.60
2022-09-02T05:36:51.221Z,0.70
2022-09-02T05:39:37.429Z,0.50
2022-09-02T05:42:24.505Z,0.62
2022-09-02T05:45:11.701Z,1.60
2022-09-02T05:48:22.684Z,1.10
2022-09-02T05:51:09.649Z,0.82
2022-09-02T05:53:57.722Z,1.08
2022-09-02T05:56:46.465Z,0.60
2022-09-02T05:59:39.089Z,0.65
2022-09-02T06:02:26.038Z,1.27
2022-09-02T06:05:12.825Z,0.50
2022-09-02T06:08:00.052Z,0.60
2022-09-02T06:10:46.528Z,0.73
2022-09-02T06:13:36.066Z,0.68
2022-09-02T06:16:23.863Z,0.50
2022-09-02T06:19:11.149Z,0.62
2022-09-02T06:21:59.963Z,0.50
2022-09-02T06:24:46.001Z,2.10
2022-09-02T06:27:33.598Z,0.70
2022-09-02T06:30:20.430Z,0.65
2022-09-02T06:33:06.869Z,0.80
2022-09-02T08:07:24.360Z,0.80
2022-09-02T08:10:13.004Z,1.20
2022-09-02T08:13:02.853Z,1.20
2022-09-02T08:15:50.885Z,0.85
2022-09-02T08:18:37.074Z,1.00
2022-09-02T08:21:24.679Z,0.90
2022-09-02T08:24:10.788Z,0.85
2022-09-02T08:26:57.375Z,0.90
2022-09-02T08:29:43.694Z,1.20
2022-09-02T08:32:32.959Z,0.95
2022-09-02T08:35:19.729Z,0.90
2022-09-02T08:38:06.071Z,1.20
2022-09-02T08:40:52.380Z,0.77
2022-09-02T08:43:43.658Z,1.20
2022-09-02T08:46:32.983Z,0.90
2022-09-02T08:49:46.717Z,0.80
2022-09-02T08:53:10.555Z,1.02
2022-09-02T08:55:59.066Z,1.10
2022-09-02T08:58:50.013Z,0.90
2022-09-02T09:01:42.279Z,1.12
2022-09-02T09:04:44.606Z,1.20
2022-09-02T09:07:46.012Z,1.10
2022-09-02T09:10:47.321Z,1.20
2022-09-02T09:14:11.145Z,0.90
2022-09-02T09:17:31.559Z,1.00
2022-09-02T09:20:20.556Z,1.37
2022-09-02T09:23:34.229Z,1.48
2022-09-02T09:26:27.643Z,1.30
2022-09-02T09:29:13.845Z,1.20
2022-09-02T09:32:01.323Z,1.30
2022-09-02T09:35:02.637Z,1.10
2022-09-02T09:37:54.133Z,1.08
2022-09-02T09:40:40.540Z,1.17
2022-09-02T09:43:30.113Z,1.30
2022-09-02T09:46:22.448Z,1.45
2022-09-02T09:49:08.993Z,1.35
2022-09-02T09:51:57.636Z,1.20
2022-09-02T09:54:44.393Z,1.33
2022-09-02T09:57:35.567Z,1.27
2022-09-02T10:00:32.361Z,1.27
2022-09-02T10:03:23.483Z,1.55
2022-09-02T10:06:37.018Z,1.23
2022-09-02T10:09:31.761Z,1.25
2022-09-02T10:12:32.636Z,1.08
2022-09-02T10:15:42.456Z,1.10
2022-09-02T10:18:46.145Z,1.33
2022-09-02T10:21:45.237Z,1.25
2022-09-02T10:25:11.024Z,1.40
2022-09-02T10:28:07.608Z,1.30
2022-09-02T10:31:16.837Z,1.30
2022-09-02T10:34:03.906Z,1.73
2022-09-02T10:37:11.936Z,1.08
2022-09-02T10:40:17.459Z,1.30
2022-09-02T10:43:08.445Z,1.17
2022-09-02T10:45:58.643Z,0.90
2022-09-02T10:49:03.532Z,1.25
2022-09-02T10:52:01.709Z,1.20
2022-09-02T10:54:53.530Z,1.20
2022-09-02T10:57:51.650Z,1.23
2022-09-02T11:00:41.080Z,1.20
2022-09-02T11:04:02.538Z,1.90
2022-09-02T11:07:02.533Z,1.02
2022-09-02T11:09:54.643Z,1.25
2022-09-02T11:15:45.910Z,1.12
2022-09-02T11:18:44.851Z,1.25
2022-09-02T11:21:43.090Z,0.98
2022-09-02T11:24:43.273Z,1.25
2022-09-02T11:28:20.994Z,1.10
2022-09-02T11:31:19.398Z,1.30
2022-09-02T11:34:41.093Z,1.20
2022-09-02T11:37:34.758Z,1.70
2022-09-02T11:40:35.152Z,1.37
2022-09-02T11:43:45.544Z,1.50
2022-09-02T11:46:39.866Z,1.33
2022-09-02T11:49:34.206Z,1.40
2022-09-02T11:52:38.181Z,1.48
2022-09-02T11:55:34.450Z,1.80
2022-09-02T11:58:39.160Z,1.50
2022-09-02T12:01:43.865Z,1.60
2022-09-02T12:07:50.159Z,1.77
2022-09-02T12:10:46.876Z,1.73
2022-09-02T12:13:38.094Z,1.55
2022-09-02T12:16:30.791Z,1.25
2022-09-02T12:19:25.167Z,1.55
2022-09-02T12:22:17.972Z,1.40
2022-09-02T12:25:26.902Z,1.67
2022-09-02T12:28:27.963Z,1.50
2022-09-02T12:31:16.753Z,1.70
2022-09-02T12:34:22.988Z,1.40
2022-09-02T12:37:09.064Z,1.30
2022-09-02T12:39:58.540Z,1.37
2022-09-02T12:42:46.720Z,1.23
2022-09-02T12:45:41.283Z,1.33
2022-09-02T12:48:40.658Z,1.20
2022-09-02T12:51:53.338Z,1.45
2022-09-02T12:57:39.552Z,1.23
2022-09-02T13:00:34.120Z,1.85
2022-09-02T13:03:32.928Z,1.50
2022-09-02T13:06:40.345Z,1.62
2022-09-02T13:09:47.994Z,1.30
2022-09-02T13:13:02.193Z,1.42
2022-09-02T13:16:07.473Z,1.50
2022-09-02T13:19:07.544Z,1.70
2022-09-02T13:22:32.396Z,1.60
2022-09-02T13:26:07.845Z,1.83
2022-09-02T13:29:06.503Z,1.92
2022-09-02T13:32:15.742Z,1.50
2022-09-02T13:35:05.825Z,1.70
2022-09-02T13:37:59.771Z,1.67
2022-09-02T13:40:46.511Z,1.42
2022-09-02T13:43:32.692Z,1.77
2022-09-02T13:46:18.987Z,1.50
2022-09-02T13:49:05.995Z,1.52
2022-09-02T13:51:54.620Z,1.50
2022-09-02T13:54:44.865Z,1.75
2022-09-02T13:57:31.841Z,1.90
2022-09-02T14:00:26.979Z,1.70
2022-09-02T14:03:17.824Z,2.15
2022-09-02T14:06:08.083Z,2.05
2022-09-02T14:08:59.747Z,1.65
2022-09-02T14:11:46.556Z,1.77
2022-09-02T14:14:33.602Z,1.40
2022-09-02T14:17:24.938Z,1.55
2022-09-02T14:20:19.207Z,1.60
2022-09-02T14:23:05.319Z,1.60
2022-09-02T14:25:55.410Z,1.40
2022-09-02T14:28:41.737Z,1.62
2022-09-02T14:31:30.972Z,1.62
2022-09-02T14:34:36.660Z,1.60
2022-09-02T14:37:24.127Z,1.58
2022-09-02T14:40:12.694Z,1.58
2022-09-02T14:42:59.765Z,1.77
2022-09-02T14:45:47.934Z,1.50
2022-09-02T14:48:38.959Z,1.67
2022-09-02T14:51:31.802Z,1.42
2022-09-02T14:54:41.167Z,1.60
2022-09-02T14:57:35.938Z,1.92
2022-09-02T15:00:22.990Z,1.75
2022-09-02T15:03:14.924Z,1.85
2022-09-02T15:06:01.143Z,1.80
2022-09-02T15:08:47.032Z,1.83
2022-09-02T15:11:33.289Z,1.50
2022-09-02T15:14:19.583Z,1.40
2022-09-02T15:17:09.616Z,1.80
2022-09-02T15:19:56.596Z,1.65
2022-09-02T15:22:43.396Z,1.33
2022-09-02T15:25:29.639Z,1.90
2022-09-02T15:28:16.017Z,1.65
2022-09-02T15:31:02.802Z,1.80
2022-09-02T15:33:51.720Z,1.87
2022-09-02T15:36:38.186Z,1.67
2022-09-02T15:39:26.023Z,2.20
2022-09-02T15:42:12.044Z,2.50
2022-09-02T15:44:58.690Z,2.12
2022-09-02T15:47:44.904Z,2.50
2022-09-02T15:50:33.974Z,2.30
2022-09-02T15:53:20.420Z,2.40
2022-09-02T15:56:19.870Z,2.58
2022-09-02T15:59:11.767Z,2.25
2022-09-02T16:02:02.362Z,2.55
2022-09-02T16:04:49.243Z,2.62
2022-09-02T16:07:35.718Z,2.30
2022-09-02T16:10:22.001Z,2.15
2022-09-02T16:13:08.418Z,2.30
2022-09-02T16:16:01.118Z,2.50
2022-09-02T16:18:52.510Z,2.40
2022-09-02T16:21:41.101Z,2.17
2022-09-02T16:24:27.326Z,2.08
2022-09-02T16:27:14.177Z,2.00
2022-09-02T16:30:00.527Z,2.90
2022-09-02T16:32:47.742Z,2.37
2022-09-02T16:35:33.955Z,2.00
2022-09-02T16:38:25.081Z,2.03
2022-09-02T16:41:23.398Z,1.92
2022-09-02T16:44:11.884Z,1.92
2022-09-02T16:46:58.104Z,2.03
2022-09-02T16:49:46.160Z,1.85
2022-09-02T16:52:34.935Z,1.85
2022-09-02T16:55:21.541Z,2.50
2022-09-02T16:58:07.461Z,2.17
2022-09-02T17:00:53.841Z,2.10
2022-09-02T17:03:40.693Z,2.22
2022-09-02T17:06:29.150Z,1.92
2022-09-02T17:09:16.392Z,1.95
2022-09-02T17:12:03.075Z,1.65
2022-09-02T17:14:49.029Z,2.03
2022-09-02T17:17:35.340Z,2.12
2022-09-02T17:20:22.639Z,2.12
2022-09-02T17:23:08.969Z,2.15
2022-09-02T17:25:55.279Z,2.10
2022-09-02T17:28:54.644Z,2.50
2022-09-02T17:31:40.725Z,1.85
2022-09-02T17:34:26.958Z,2.45
2022-09-02T17:37:13.326Z,2.10
2022-09-02T17:40:00.722Z,2.03
2022-09-02T17:42:46.784Z,1.98
2022-09-02T17:45:36.624Z,1.87
2022-09-02T17:48:37.222Z,2.20
2022-09-02T17:51:25.874Z,2.60
2022-09-02T17:54:12.695Z,3.42
2022-09-02T17:57:17.380Z,2.33
2022-09-02T18:00:22.374Z,1.87
2022-09-02T18:03:28.572Z,1.92
2022-09-02T18:06:25.059Z,2.12
2022-09-02T18:09:12.637Z,2.03
2022-09-02T18:12:01.080Z,2.47
2022-09-02T18:14:55.870Z,2.50
2022-09-02T18:17:48.507Z,2.75
2022-09-02T18:20:48.630Z,2.28
2022-09-02T18:23:53.431Z,2.00
2022-09-02T18:26:56.728Z,1.90
2022-09-02T18:29:53.230Z,2.30
2022-09-02T18:33:21.365Z,1.85
2022-09-02T18:36:19.319Z,2.40
2022-09-02T18:39:35.786Z,1.90
2022-09-02T18:42:38.810Z,2.37
2022-09-02T18:45:29.386Z,2.20
2022-09-02T18:48:37.426Z,2.25
2022-09-02T18:51:35.475Z,2.53
2022-09-02T18:54:27.435Z,2.53
2022-09-02T18:57:15.712Z,2.80
2022-09-02T19:00:09.091Z,2.47
2022-09-02T19:03:01.563Z,2.17
2022-09-02T19:05:49.748Z,2.20
2022-09-02T19:08:38.255Z,2.47
2022-09-02T19:11:27.293Z,2.10
2022-09-02T19:14:28.096Z,2.30
2022-09-02T19:17:14.891Z,2.25
2022-09-02T19:20:01.140Z,2.25
2022-09-02T19:22:51.018Z,2.40
2022-09-02T19:25:39.702Z,2.42
2022-09-02T19:28:26.581Z,2.47
2022-09-02T19:31:22.356Z,2.20
2022-09-02T19:34:11.449Z,2.20
2022-09-02T19:37:01.868Z,2.45
2022-09-02T19:39:51.283Z,2.42
2022-09-02T19:42:40.390Z,2.67
2022-09-02T19:45:29.305Z,2.90
2022-09-02T19:48:16.098Z,2.62
2022-09-02T19:51:03.217Z,2.90
2022-09-02T19:53:49.852Z,3.15
2022-09-02T19:56:36.852Z,3.00
2022-09-02T19:59:23.687Z,2.83
2022-09-02T20:02:10.198Z,3.40
2022-09-02T20:04:56.883Z,2.50
2022-09-02T20:07:42.742Z,2.80
2022-09-02T20:10:30.812Z,2.60
2022-09-02T20:13:17.934Z,3.12
2022-09-02T20:16:06.277Z,2.70
2022-09-02T20:18:53.603Z,2.80
2022-09-02T20:21:44.001Z,2.62
2022-09-02T20:24:33.974Z,3.10
2022-09-02T20:27:34.369Z,2.80
2022-09-02T20:30:21.183Z,3.10
2022-09-02T20:33:22.319Z,3.08
2022-09-02T20:36:39.470Z,3.20
2022-09-02T20:39:47.947Z,2.50
2022-09-02T20:43:00.741Z,3.08
2022-09-02T20:46:09.192Z,2.53
2022-09-02T20:49:01.460Z,2.92
2022-09-02T20:51:53.351Z,3.42
2022-09-02T20:54:48.600Z,3.10
2022-09-02T20:57:48.993Z,2.97
2022-09-02T21:00:35.299Z,3.17
2022-09-02T21:03:25.831Z,3.35
2022-09-02T21:06:12.270Z,3.75
2022-09-02T21:09:13.485Z,3.22
2022-09-02T21:12:12.941Z,3.10
2022-09-02T21:15:14.224Z,2.75
2022-09-02T21:18:15.960Z,2.95
2022-09-02T21:21:29.276Z,2.72
2022-09-02T21:24:24.696Z,2.85
2022-09-02T21:27:21.147Z,3.58
2022-09-02T21:30:22.913Z,3.22
2022-09-02T21:33:12.041Z,3.10
2022-09-02T21:35:59.149Z,2.70
2022-09-02T21:38:46.017Z,3.10
2022-09-02T21:41:42.981Z,2.83
2022-09-02T21:44:42.256Z,3.12
2022-09-02T21:47:35.352Z,3.10
2022-09-02T21:50:48.320Z,2.72
2022-09-02T21:53:53.612Z,3.00
2022-09-02T21:56:55.897Z,3.10
2022-09-02T21:59:49.379Z,2.83
2022-09-02T22:02:36.032Z,2.50
2022-09-02T22:06:10.062Z,2.72
2022-09-02T22:09:08.590Z,2.85
2022-09-02T22:12:11.143Z,2.60
2022-09-02T22:15:13.401Z,3.20
2022-09-02T22:18:14.018Z,2.75
2022-09-02T22:21:05.710Z,2.60
2022-09-02T22:23:54.525Z,2.78
2022-09-02T22:26:47.739Z,2.45
2022-09-02T22:29:40.118Z,2.70
2022-09-02T22:32:31.936Z,2.72
2022-09-02T22:35:31.466Z,3.17
2022-09-02T22:38:26.471Z,3.30
2022-09-02T22:41:29.284Z,3.22
2022-09-02T22:44:22.894Z,2.90
2022-09-02T22:47:27.792Z,3.08
2022-09-02T22:50:37.652Z,2.97
2022-09-02T22:53:24.128Z,3.50
2022-09-02T22:56:11.628Z,3.05
2022-09-02T22:59:24.272Z,2.65
2022-09-02T23:02:22.369Z,3.00
2022-09-02T23:05:37.808Z,2.67
2022-09-02T23:08:24.620Z,2.75
2022-09-02T23:11:16.558Z,2.83
2022-09-02T23:14:41.133Z,2.80
2022-09-02T23:17:34.843Z,2.72
2022-09-02T23:20:25.381Z,2.87
2022-09-02T23:23:26.985Z,3.00
2022-09-02T23:29:28.737Z,3.80
2022-09-02T23:32:53.103Z,2.75
2022-09-02T23:35:59.883Z,3.05
2022-09-02T23:39:02.288Z,3.00
2022-09-02T23:41:48.905Z,3.10
2022-09-02T23:44:36.015Z,2.83
2022-09-02T23:47:37.770Z,3.05
2022-09-02T23:53:13.968Z,2.70
2022-09-02T23:56:33.734Z,2.80
2022-09-02T23:59:26.236Z,2.70
